Northwoods, Illinois
Current Conditions -  °F | °C
As of 1:52 PM on Sunday 21 Dec 2014 (Local Time) from KDPA Reporting Station
Haze Haze  
Wind Chill: 28°   Ceiling: 1700
Heat Index: 37°   Visibility: 6mi
Dew Point: 30°   Wind: 16mph
Humidity: 76%   Direction: 170°S
Pressure: 30.07"   Gusts: NA
Location:  41.9°N, 88.2142°W
Report Text: KDPA 211952Z 17014KT 6SM HZ OVC017 03/M01 A3007 RMK AO2 SLP190 T00281011
Loading
Personal Weather Stations






























Interactive Weather Map New forecast layout! Learn more

10-Day Weather Forecast

Advertisements
Track Severe Weather on mobile